Portada
METAR-TAF:

METAR-TAF

Aeropuertos :

Lecce, Italia

latitud: 40-14N, longitud: 018-09E, altitud: 48 m

Observación

El informe se hizo hace 47 minutos, a las 10:55 UTC
Viento 17 kt del norte
Temperatura 16°C
Humedad 68%
Presión 1011 hPa
Visibilidad 10 km o más
Nubes dispersas a una altura de 3000 ft

METAR: LIBN 041055Z 01017KT 9999 SCT030 16/10 Q1011 RMK BKN SCT100 VIS MIN 9999 WIND THR14 01018KT WIND THR32 01018KT BLU

Hora: 13:42 (11:42 UTC)

Pronóstico

El informe se hizo hace 21 horas y 42 minutos, a las 14:00 UTC
Pronóstico válido del 03 a las 15 UTC al 03 a las 24 UTC
Viento 3 kt con dirección variable
Visibilidad: 8000 m
Cielo nuboso a una altura de 2500 ft
Temporalmente
del 03 a las 12 UTC al 03 a las 16 UTC
Viento 10 kt del norte
Visibilidad: 6000 m
Cielo nuboso a una altura de 2500 ft
lluvia

TAF: LIBN 031400Z 0315/0324 VRB03KT 8000 BKN025 TEMPO 0312/0316 01010KT 6000 RA BKN025

Observaciones y pronósticos meteorológicos de más de 4000 aeropuertos (mensajes METAR y TAF).

Los puntos amarillos y rojos representan las estaciones disponibles.

Ponga el ratón en el punto deseado para ver el nombre de la estación.

Haga clic para ver las observaciones y los pronósticos meteorológicos.

Para cambiar el mapa : haga clic en los botones verdes con una cruz de color negro para hacer un zoom, en el botón verde con un guión para alejar o en las flechas verdes para mapas adyacentes.


METAR-TAF: